createdAt,value
2019-02-21T00:00:35.294Z,8.57
2019-02-21T00:01:10.537Z,8.44
2019-02-21T00:01:46.250Z,8.55
2019-02-21T00:02:21.518Z,8.48
2019-02-21T00:02:56.731Z,8.40
2019-02-21T00:03:32.058Z,8.45
2019-02-21T00:04:07.468Z,8.50
2019-02-21T00:04:42.707Z,8.51
2019-02-21T00:05:18.010Z,8.50
2019-02-21T00:05:53.556Z,8.47
2019-02-21T00:06:29.053Z,8.45
2019-02-21T00:07:04.582Z,8.51
2019-02-21T00:07:40.340Z,8.55
2019-02-21T00:08:15.874Z,8.53
2019-02-21T00:08:51.064Z,8.53
2019-02-21T00:09:26.220Z,8.48
2019-02-21T00:10:01.962Z,8.48
2019-02-21T00:10:37.387Z,8.54
2019-02-21T00:11:12.589Z,8.48
2019-02-21T00:11:48.008Z,8.53
2019-02-21T00:12:23.240Z,8.39
2019-02-21T00:12:58.441Z,8.42
2019-02-21T00:13:33.793Z,8.35
2019-02-21T00:14:09.295Z,8.48
2019-02-21T00:14:44.520Z,8.42
2019-02-21T00:15:19.771Z,8.40
2019-02-21T00:15:54.977Z,8.44
2019-02-21T00:16:30.402Z,8.42
2019-02-21T00:17:05.821Z,8.40
2019-02-21T00:17:41.040Z,8.37
2019-02-21T00:18:16.676Z,8.39
2019-02-21T00:18:51.941Z,8.39
2019-02-21T00:19:27.206Z,8.39
2019-02-21T00:20:02.452Z,8.40
2019-02-21T00:20:37.895Z,8.36
2019-02-21T00:21:13.046Z,8.33
2019-02-21T00:21:48.160Z,8.40
2019-02-21T00:22:23.718Z,8.33
2019-02-21T00:22:59.316Z,8.37
2019-02-21T00:23:34.803Z,8.30
2019-02-21T00:24:10.141Z,8.26
2019-02-21T00:24:45.357Z,8.29
2019-02-21T00:25:20.821Z,8.28
2019-02-21T00:25:56.401Z,8.22
2019-02-21T00:26:31.806Z,8.21
2019-02-21T00:27:07.230Z,8.26
2019-02-21T00:27:42.511Z,8.26
2019-02-21T00:28:17.635Z,8.17
2019-02-21T00:28:52.857Z,8.21
2019-02-21T00:29:28.256Z,8.20
2019-02-21T00:30:03.510Z,8.25
2019-02-21T00:30:39.027Z,8.30
2019-02-21T00:31:14.354Z,8.25
2019-02-21T00:31:49.463Z,8.22
2019-02-21T00:32:24.791Z,8.20
2019-02-21T00:33:00.114Z,8.25
2019-02-21T00:33:35.471Z,8.22
2019-02-21T00:34:10.906Z,8.30
2019-02-21T00:34:46.434Z,8.15
2019-02-21T00:35:21.854Z,8.21
2019-02-21T00:35:57.705Z,8.20
2019-02-21T00:36:33.128Z,8.21
2019-02-21T00:37:08.329Z,8.15
2019-02-21T00:37:43.577Z,8.12
2019-02-21T00:38:18.787Z,8.11
2019-02-21T00:38:54.293Z,8.15
2019-02-21T00:39:30.350Z,8.20
2019-02-21T00:40:06.035Z,8.21
2019-02-21T00:40:41.281Z,8.18
2019-02-21T00:41:16.881Z,8.20
2019-02-21T00:41:52.278Z,8.18
2019-02-21T00:42:28.005Z,8.18
2019-02-21T00:43:03.370Z,8.18
2019-02-21T00:43:38.619Z,8.14
2019-02-21T00:44:14.133Z,8.14
2019-02-21T00:44:50.504Z,8.15
2019-02-21T00:45:25.831Z,8.10
2019-02-21T00:46:01.182Z,8.14
2019-02-21T00:46:36.588Z,8.15
2019-02-21T00:47:11.917Z,8.10
2019-02-21T00:47:47.713Z,8.11
2019-02-21T00:48:23.097Z,8.10
2019-02-21T00:48:58.321Z,8.10
2019-02-21T00:49:33.630Z,8.08
2019-02-21T00:50:09.047Z,8.14
2019-02-21T00:50:44.369Z,8.07
2019-02-21T00:51:20.489Z,7.96
2019-02-21T00:51:55.888Z,7.99
2019-02-21T00:52:31.436Z,8.07
2019-02-21T00:53:06.221Z,8.07
2019-02-21T00:53:41.622Z,7.97
2019-02-21T00:54:17.029Z,7.96
2019-02-21T00:54:52.222Z,7.94
2019-02-21T00:55:27.992Z,7.97
2019-02-21T00:56:02.961Z,7.87
2019-02-21T00:56:38.286Z,7.93
2019-02-21T00:57:13.489Z,7.85
2019-02-21T00:57:48.635Z,7.89
2019-02-21T00:58:24.040Z,7.89
2019-02-21T00:58:59.578Z,7.82
2019-02-21T00:59:34.895Z,7.85
2019-02-21T01:00:10.744Z,7.93
2019-02-21T01:00:46.915Z,7.93
2019-02-21T01:01:21.387Z,7.89
2019-02-21T01:01:56.725Z,7.90
2019-02-21T01:02:32.033Z,7.81
2019-02-21T01:03:07.584Z,7.92
2019-02-21T01:03:42.886Z,7.79
2019-02-21T01:04:18.409Z,7.85
2019-02-21T01:04:54.044Z,7.87
2019-02-21T01:05:29.370Z,7.92
2019-02-21T01:06:04.835Z,7.94
2019-02-21T01:06:40.044Z,7.92
2019-02-21T01:07:15.478Z,7.99
2019-02-21T01:07:50.882Z,7.90
2019-02-21T01:08:26.401Z,7.85
2019-02-21T01:09:01.631Z,7.90
2019-02-21T01:09:36.739Z,7.97
2019-02-21T01:10:11.948Z,7.89
2019-02-21T01:10:47.173Z,7.99
2019-02-21T01:11:22.417Z,7.99
2019-02-21T01:11:58.124Z,7.84
2019-02-21T01:12:33.654Z,7.87
2019-02-21T01:13:09.100Z,7.81
2019-02-21T01:13:44.285Z,7.92
2019-02-21T01:14:19.225Z,7.78
2019-02-21T01:14:54.691Z,7.77
2019-02-21T01:15:30.015Z,7.79
2019-02-21T01:16:05.476Z,7.84
2019-02-21T01:16:40.711Z,7.81
2019-02-21T01:17:16.026Z,7.75
2019-02-21T01:17:51.653Z,7.74
2019-02-21T01:18:26.895Z,7.78
2019-02-21T01:19:02.500Z,7.77
2019-02-21T01:19:37.838Z,7.67
2019-02-21T01:20:13.237Z,7.77
2019-02-21T01:20:48.672Z,7.71
2019-02-21T01:21:24.231Z,7.77
2019-02-21T01:21:59.435Z,7.72
2019-02-21T01:22:35.157Z,7.74
2019-02-21T01:23:10.250Z,7.75
2019-02-21T01:23:45.663Z,7.69
2019-02-21T01:24:21.093Z,7.71
2019-02-21T01:24:56.301Z,7.71
2019-02-21T01:25:31.818Z,7.66
2019-02-21T01:26:07.112Z,7.71
2019-02-21T01:26:42.582Z,7.72
2019-02-21T01:27:17.869Z,7.71
2019-02-21T01:27:53.386Z,7.69
2019-02-21T01:28:28.798Z,7.71
2019-02-21T01:29:04.155Z,7.71
2019-02-21T01:29:39.408Z,7.71
2019-02-21T01:30:14.909Z,7.69
2019-02-21T01:30:56.745Z,7.74
2019-02-21T01:31:25.828Z,7.74
2019-02-21T01:32:01.483Z,7.77
2019-02-21T01:32:36.913Z,7.67
2019-02-21T01:33:12.106Z,7.75
2019-02-21T01:33:47.522Z,7.77
2019-02-21T01:34:23.126Z,7.63
2019-02-21T01:34:58.358Z,7.74
2019-02-21T01:35:33.605Z,7.69
2019-02-21T01:36:08.809Z,7.71
2019-02-21T01:36:44.128Z,7.69
2019-02-21T01:37:19.461Z,7.81
2019-02-21T01:37:55.074Z,7.72
2019-02-21T01:38:30.757Z,7.69
2019-02-21T01:39:06.421Z,7.69
2019-02-21T01:39:41.870Z,7.72
2019-02-21T01:40:17.231Z,7.72
2019-02-21T01:40:52.448Z,7.81
2019-02-21T01:41:27.545Z,7.69
2019-02-21T01:42:02.969Z,7.66
2019-02-21T01:42:38.105Z,7.74
2019-02-21T01:43:13.434Z,7.81
2019-02-21T01:43:48.720Z,7.75
2019-02-21T01:44:24.075Z,7.74
2019-02-21T01:44:59.195Z,7.67
2019-02-21T01:45:34.386Z,7.71
2019-02-21T01:46:09.526Z,7.72
2019-02-21T01:46:44.976Z,7.72
2019-02-21T01:47:20.410Z,7.72
2019-02-21T01:47:55.740Z,7.75
2019-02-21T01:48:31.067Z,7.79
2019-02-21T01:49:06.574Z,7.75
2019-02-21T01:49:41.901Z,7.63
2019-02-21T01:50:17.201Z,7.69
2019-02-21T01:50:52.639Z,7.71
2019-02-21T01:51:28.023Z,7.66
2019-02-21T01:52:03.669Z,7.69
2019-02-21T01:52:39.175Z,7.62
2019-02-21T01:53:14.447Z,7.67
2019-02-21T01:53:49.754Z,7.63
2019-02-21T01:54:25.267Z,7.63
2019-02-21T01:55:00.679Z,7.59
2019-02-21T01:55:36.009Z,7.67
2019-02-21T01:56:11.422Z,7.60
2019-02-21T01:56:46.845Z,7.74
2019-02-21T01:57:22.053Z,7.67
2019-02-21T01:57:57.362Z,7.74
2019-02-21T01:58:32.613Z,7.75
2019-02-21T01:59:08.008Z,7.74
2019-02-21T01:59:43.424Z,7.71
2019-02-21T02:00:18.631Z,7.75
2019-02-21T02:00:54.030Z,7.72
2019-02-21T02:01:29.142Z,7.78
2019-02-21T02:02:04.546Z,7.74
2019-02-21T02:02:39.675Z,7.75
2019-02-21T02:03:15.091Z,7.74
2019-02-21T02:03:50.231Z,7.67
2019-02-21T02:04:25.451Z,7.63
2019-02-21T02:05:00.842Z,7.69
2019-02-21T02:05:36.166Z,7.74
2019-02-21T02:06:11.562Z,7.75
2019-02-21T02:06:46.987Z,7.71
2019-02-21T02:07:22.224Z,7.74
2019-02-21T02:07:57.525Z,7.71
2019-02-21T02:08:32.763Z,7.74
2019-02-21T02:09:08.010Z,7.75
2019-02-21T02:09:43.349Z,7.69
2019-02-21T02:10:18.675Z,7.72
2019-02-21T02:10:54.075Z,7.72
2019-02-21T02:11:29.492Z,7.67
2019-02-21T02:12:04.590Z,7.75
2019-02-21T02:12:40.207Z,7.69
2019-02-21T02:13:24.085Z,7.69
2019-02-21T02:13:50.776Z,7.78
2019-02-21T02:14:26.132Z,7.78
2019-02-21T02:15:01.419Z,7.77
2019-02-21T02:15:36.767Z,7.78
2019-02-21T02:16:12.057Z,7.81
2019-02-21T02:16:47.477Z,7.82
2019-02-21T02:17:22.681Z,7.79
2019-02-21T02:17:57.978Z,7.85
2019-02-21T02:18:33.698Z,7.81
2019-02-21T02:19:09.264Z,7.78
2019-02-21T02:19:44.734Z,7.82
2019-02-21T02:20:20.130Z,7.82
2019-02-21T02:20:55.346Z,7.81
2019-02-21T02:21:30.870Z,7.79
2019-02-21T02:22:06.101Z,7.87
2019-02-21T02:22:41.514Z,7.84
2019-02-21T02:23:16.924Z,7.81
2019-02-21T02:23:52.323Z,7.85
2019-02-21T02:24:28.163Z,7.82
2019-02-21T02:25:03.395Z,7.90
2019-02-21T02:25:38.826Z,7.85
2019-02-21T02:26:14.119Z,7.82
2019-02-21T02:26:49.555Z,7.85
2019-02-21T02:27:24.944Z,7.96
2019-02-21T02:28:00.492Z,7.89
2019-02-21T02:28:36.065Z,7.84
2019-02-21T02:29:11.193Z,7.90
2019-02-21T02:29:46.722Z,7.85
2019-02-21T02:30:22.079Z,7.87
2019-02-21T02:30:57.581Z,7.85
2019-02-21T02:31:32.902Z,7.85
2019-02-21T02:32:09.655Z,7.85
2019-02-21T02:32:43.624Z,7.97
2019-02-21T02:33:19.058Z,7.85
2019-02-21T02:33:54.481Z,7.92
2019-02-21T02:34:29.873Z,7.89
2019-02-21T02:35:05.302Z,7.85
2019-02-21T02:35:40.720Z,7.85
2019-02-21T02:36:16.335Z,7.87
2019-02-21T02:36:51.869Z,7.85
2019-02-21T02:37:27.184Z,7.97
2019-02-21T02:38:02.517Z,7.92
2019-02-21T02:38:37.926Z,7.89
2019-02-21T02:39:13.343Z,7.87
2019-02-21T02:39:48.838Z,7.93
2019-02-21T02:40:24.249Z,7.92
2019-02-21T02:40:59.297Z,7.81
2019-02-21T02:41:34.796Z,7.92
2019-02-21T02:42:10.319Z,7.84
2019-02-21T02:42:45.922Z,7.84
2019-02-21T02:43:21.149Z,7.82
2019-02-21T02:43:56.648Z,7.81
2019-02-21T02:44:31.872Z,7.84
2019-02-21T02:45:07.307Z,7.87
2019-02-21T02:45:42.507Z,7.85
2019-02-21T02:46:17.877Z,7.79
2019-02-21T02:46:53.380Z,7.81
2019-02-21T02:47:28.517Z,7.74
2019-02-21T02:48:04.223Z,7.78
2019-02-21T02:48:39.754Z,7.74
2019-02-21T02:49:15.863Z,7.74
2019-02-21T02:49:50.852Z,7.72
2019-02-21T02:50:26.077Z,7.69
2019-02-21T02:51:01.397Z,7.74
2019-02-21T02:51:37.038Z,7.78
2019-02-21T02:52:12.344Z,7.79
2019-02-21T02:52:47.871Z,7.75
2019-02-21T02:53:23.218Z,7.71
2019-02-21T02:53:58.517Z,7.78
2019-02-21T02:54:34.242Z,7.82
2019-02-21T02:55:09.730Z,7.89
2019-02-21T02:55:45.259Z,7.87
2019-02-21T02:56:20.883Z,7.85
2019-02-21T02:56:56.309Z,7.85
2019-02-21T02:57:31.842Z,7.82
2019-02-21T02:58:07.348Z,7.89
2019-02-21T02:58:45.321Z,7.75
2019-02-21T02:59:18.091Z,7.71
2019-02-21T02:59:53.517Z,7.69
2019-02-21T03:00:28.956Z,7.69
2019-02-21T03:01:04.269Z,7.75
2019-02-21T03:01:39.665Z,7.69
2019-02-21T03:02:15.091Z,7.69
2019-02-21T03:02:50.729Z,7.69
2019-02-21T03:03:25.846Z,7.67
2019-02-21T03:04:01.227Z,7.63
2019-02-21T03:04:36.973Z,7.59
2019-02-21T03:05:12.481Z,7.55
2019-02-21T03:05:47.895Z,7.60
2019-02-21T03:06:23.200Z,7.62
2019-02-21T03:06:58.616Z,7.60
2019-02-21T03:07:34.187Z,7.69
2019-02-21T03:08:09.883Z,7.60
2019-02-21T03:08:45.196Z,7.62
2019-02-21T03:09:20.815Z,7.62
2019-02-21T03:09:56.634Z,7.71
2019-02-21T03:10:32.245Z,7.71
2019-02-21T03:11:08.070Z,7.62
2019-02-21T03:11:43.397Z,7.69
2019-02-21T03:12:18.593Z,7.72
2019-02-21T03:12:53.945Z,7.74
2019-02-21T03:13:29.455Z,7.69
2019-02-21T03:14:04.785Z,7.63
2019-02-21T03:14:40.291Z,7.62
2019-02-21T03:15:15.602Z,7.63
2019-02-21T03:15:51.027Z,7.60
2019-02-21T03:16:26.419Z,7.60
2019-02-21T03:17:01.741Z,7.58
2019-02-21T03:17:37.047Z,7.49
2019-02-21T03:18:12.709Z,7.53
2019-02-21T03:18:48.142Z,7.45
2019-02-21T03:19:23.543Z,7.45
2019-02-21T03:19:58.757Z,7.45
2019-02-21T03:20:33.954Z,7.47
2019-02-21T03:21:09.164Z,7.50
2019-02-21T03:21:44.923Z,7.42
2019-02-21T03:22:20.320Z,7.41
2019-02-21T03:22:55.647Z,7.52
2019-02-21T03:23:30.977Z,7.41
2019-02-21T03:24:06.301Z,7.49
2019-02-21T03:24:41.710Z,7.50
2019-02-21T03:25:17.019Z,7.50
2019-02-21T03:25:52.517Z,7.41
2019-02-21T03:26:27.849Z,7.35
2019-02-21T03:27:03.502Z,7.50
2019-02-21T03:27:58.795Z,7.58
2019-02-21T03:28:34.525Z,7.49
2019-02-21T03:29:09.845Z,7.55
2019-02-21T03:29:45.436Z,7.45
2019-02-21T03:30:20.965Z,7.35
2019-02-21T03:30:56.464Z,7.34
2019-02-21T03:31:31.791Z,7.37
2019-02-21T03:32:07.209Z,7.41
2019-02-21T03:32:42.703Z,7.37
2019-02-21T03:33:17.842Z,7.35
2019-02-21T03:33:53.159Z,7.32
2019-02-21T03:34:28.586Z,7.35
2019-02-21T03:35:03.621Z,7.32
2019-02-21T03:35:39.204Z,7.32
2019-02-21T03:36:14.632Z,7.27
2019-02-21T03:36:50.030Z,7.19
2019-02-21T03:37:25.242Z,7.22
2019-02-21T03:38:00.670Z,7.22
2019-02-21T03:38:36.087Z,7.19
2019-02-21T03:39:11.559Z,7.20
2019-02-21T03:39:46.750Z,7.16
2019-02-21T03:40:22.005Z,7.17
2019-02-21T03:40:58.011Z,7.20
2019-02-21T03:41:33.709Z,7.08
2019-02-21T03:42:09.116Z,7.13
2019-02-21T03:42:44.628Z,7.08
2019-02-21T03:43:19.948Z,7.01
2019-02-21T03:43:55.170Z,7.09
2019-02-21T03:44:30.319Z,7.07
2019-02-21T03:45:05.727Z,7.01
2019-02-21T03:45:40.963Z,7.02
2019-02-21T03:46:16.385Z,7.05
2019-02-21T03:46:51.688Z,7.04
2019-02-21T03:47:27.524Z,6.99
2019-02-21T03:48:03.064Z,7.04
2019-02-21T03:48:38.460Z,6.98
2019-02-21T03:49:13.765Z,7.04
2019-02-21T03:49:49.432Z,7.02
2019-02-21T03:50:24.867Z,7.04
2019-02-21T03:51:00.479Z,6.98
2019-02-21T03:51:35.802Z,7.13
2019-02-21T03:52:10.992Z,6.98
2019-02-21T03:52:46.320Z,7.01
2019-02-21T03:53:21.546Z,7.02
2019-02-21T03:53:56.839Z,7.04
2019-02-21T03:54:32.153Z,7.04
2019-02-21T03:55:07.610Z,7.09
2019-02-21T03:55:43.106Z,7.04
2019-02-21T03:56:18.709Z,7.01
2019-02-21T03:56:54.045Z,6.98
2019-02-21T03:57:29.504Z,7.02
2019-02-21T03:58:04.998Z,7.07
2019-02-21T03:58:40.429Z,7.01
2019-02-21T03:59:16.088Z,6.98
2019-02-21T03:59:51.347Z,7.01
2019-02-21T04:00:26.889Z,7.02
2019-02-21T04:01:02.103Z,7.01
2019-02-21T04:01:37.528Z,6.99
2019-02-21T04:02:12.927Z,7.07
2019-02-21T04:02:48.252Z,6.99
2019-02-21T04:03:23.551Z,7.05
2019-02-21T04:03:58.969Z,6.98
2019-02-21T04:04:34.329Z,6.94
2019-02-21T04:05:09.709Z,7.01
2019-02-21T04:05:45.074Z,6.95
2019-02-21T04:06:20.369Z,6.97
2019-02-21T04:06:55.785Z,6.99
2019-02-21T04:07:30.992Z,6.99
2019-02-21T04:08:06.414Z,7.07
2019-02-21T04:08:41.615Z,7.02
2019-02-21T04:09:17.163Z,6.95
2019-02-21T04:09:52.278Z,6.94
2019-02-21T04:10:27.877Z,6.90
2019-02-21T04:11:03.444Z,6.97
2019-02-21T04:11:38.829Z,7.01
2019-02-21T04:12:14.371Z,6.94
2019-02-21T04:12:49.656Z,6.90
2019-02-21T04:13:25.371Z,6.97
2019-02-21T04:14:00.900Z,6.99
2019-02-21T04:14:36.786Z,6.95
2019-02-21T04:15:12.139Z,6.95
2019-02-21T04:15:47.432Z,6.94
2019-02-21T04:16:22.813Z,6.94
2019-02-21T04:16:58.352Z,6.91
2019-02-21T04:17:33.659Z,6.83
2019-02-21T04:18:09.003Z,6.89
2019-02-21T04:18:44.645Z,6.81
2019-02-21T04:19:20.070Z,6.77
2019-02-21T04:19:55.493Z,6.91
2019-02-21T04:20:30.927Z,6.95
2019-02-21T04:21:06.353Z,6.91
2019-02-21T04:21:41.583Z,6.87
2019-02-21T04:22:17.003Z,6.89
2019-02-21T04:22:52.302Z,6.89
2019-02-21T04:23:27.547Z,6.99
2019-02-21T04:24:02.856Z,6.83
2019-02-21T04:24:38.172Z,6.90
2019-02-21T04:25:13.897Z,6.84
2019-02-21T04:25:49.318Z,6.97
2019-02-21T04:26:24.433Z,6.95
2019-02-21T04:26:59.782Z,6.95
2019-02-21T04:27:35.108Z,6.91
2019-02-21T04:28:10.407Z,6.91
2019-02-21T04:28:45.911Z,6.90
2019-02-21T04:29:20.763Z,6.95
2019-02-21T04:29:56.050Z,6.91
2019-02-21T04:30:31.361Z,7.04
2019-02-21T04:31:06.853Z,6.97
2019-02-21T04:31:42.381Z,6.99
2019-02-21T04:32:17.833Z,6.83
2019-02-21T04:32:53.456Z,6.81
2019-02-21T04:33:28.996Z,6.89
2019-02-21T04:34:04.383Z,6.91
2019-02-21T04:34:39.704Z,6.81
2019-02-21T04:35:14.804Z,6.80
2019-02-21T04:35:50.112Z,6.86
2019-02-21T04:36:25.442Z,6.87
2019-02-21T04:37:00.562Z,6.84
2019-02-21T04:37:35.902Z,6.79
2019-02-21T04:38:11.492Z,6.95
2019-02-21T04:38:47.111Z,6.87
2019-02-21T04:39:22.433Z,6.73
2019-02-21T04:39:57.744Z,6.81
2019-02-21T04:40:34.066Z,6.83
2019-02-21T04:41:09.251Z,6.89
2019-02-21T04:41:46.785Z,6.86
2019-02-21T04:42:21.877Z,6.94
2019-02-21T04:42:57.140Z,6.73
2019-02-21T04:43:32.631Z,6.80
2019-02-21T04:44:07.937Z,6.86
2019-02-21T04:44:43.274Z,6.86
2019-02-21T04:45:18.371Z,6.80
2019-02-21T04:45:53.937Z,6.86
2019-02-21T04:46:29.334Z,6.87
2019-02-21T04:47:04.469Z,6.81
2019-02-21T04:47:39.911Z,6.73
2019-02-21T04:48:15.141Z,6.83
2019-02-21T04:48:50.660Z,6.81
2019-02-21T04:49:26.160Z,6.81
2019-02-21T04:50:01.499Z,6.86
2019-02-21T04:50:36.801Z,6.95
2019-02-21T04:51:12.339Z,6.87
2019-02-21T04:51:47.862Z,6.89
2019-02-21T04:52:23.169Z,6.84
2019-02-21T04:52:58.500Z,6.89
2019-02-21T04:53:33.815Z,6.87
2019-02-21T04:54:09.138Z,6.83
2019-02-21T04:54:44.530Z,6.84
2019-02-21T04:55:19.945Z,6.81
2019-02-21T04:55:55.163Z,6.72
2019-02-21T04:56:30.389Z,6.81
2019-02-21T04:57:05.821Z,6.73
2019-02-21T04:57:41.247Z,6.80
2019-02-21T04:58:16.759Z,6.83
2019-02-21T04:58:52.311Z,6.79
2019-02-21T04:59:27.704Z,6.79
2019-02-21T05:00:03.229Z,6.79
2019-02-21T05:00:38.351Z,6.80
2019-02-21T05:01:13.663Z,6.76
2019-02-21T05:01:49.184Z,6.68
2019-02-21T05:02:28.871Z,6.65
2019-02-21T05:03:00.321Z,6.71
2019-02-21T05:03:35.842Z,6.72
2019-02-21T05:04:11.190Z,6.76
2019-02-21T05:04:46.520Z,6.76
2019-02-21T05:05:21.727Z,6.73
2019-02-21T05:05:57.044Z,6.76
2019-02-21T05:06:32.347Z,6.69
2019-02-21T05:07:07.464Z,6.69
2019-02-21T05:07:42.960Z,6.68
2019-02-21T05:08:18.496Z,6.66
2019-02-21T05:08:54.201Z,6.68
2019-02-21T05:09:29.706Z,6.68
2019-02-21T05:10:04.897Z,6.79
2019-02-21T05:10:40.112Z,6.72
2019-02-21T05:11:15.327Z,6.69
2019-02-21T05:11:50.992Z,6.71
2019-02-21T05:12:26.399Z,6.77
2019-02-21T05:13:01.875Z,6.69
2019-02-21T05:13:37.591Z,6.61
2019-02-21T05:14:13.212Z,6.61
2019-02-21T05:14:48.950Z,6.54
2019-02-21T05:15:24.407Z,6.61
2019-02-21T05:15:59.838Z,6.54
2019-02-21T05:16:35.069Z,6.68
2019-02-21T05:17:10.721Z,6.68
2019-02-21T05:17:46.165Z,6.66
2019-02-21T05:18:21.449Z,6.62
2019-02-21T05:18:56.688Z,6.69
2019-02-21T05:19:31.900Z,6.73
2019-02-21T05:20:07.176Z,6.69
2019-02-21T05:20:42.532Z,6.73
2019-02-21T05:21:18.408Z,6.79
2019-02-21T05:21:53.796Z,6.69
2019-02-21T05:22:29.136Z,6.63
2019-02-21T05:23:04.566Z,6.73
2019-02-21T05:23:40.012Z,6.59
2019-02-21T05:24:15.328Z,6.63
2019-02-21T05:24:50.875Z,6.59
2019-02-21T05:25:25.997Z,6.62
2019-02-21T05:26:01.428Z,6.61
2019-02-21T05:26:36.922Z,6.51
2019-02-21T05:27:12.264Z,6.62
2019-02-21T05:27:47.650Z,6.54
2019-02-21T05:28:22.794Z,6.59
2019-02-21T05:28:58.202Z,6.56
2019-02-21T05:29:33.536Z,6.53
2019-02-21T05:30:08.636Z,6.50
2019-02-21T05:30:44.208Z,6.56
2019-02-21T05:31:19.496Z,6.50
2019-02-21T05:31:54.816Z,6.53
2019-02-21T05:32:40.466Z,6.54
2019-02-21T05:33:05.559Z,6.53
2019-02-21T05:33:41.050Z,6.56
2019-02-21T05:34:16.289Z,6.54
2019-02-21T05:34:51.370Z,6.66
2019-02-21T05:35:26.484Z,6.63
2019-02-21T05:36:01.908Z,6.69
2019-02-21T05:36:37.347Z,6.63
2019-02-21T05:37:12.452Z,6.65
2019-02-21T05:37:47.913Z,6.61
2019-02-21T05:38:23.305Z,6.62
2019-02-21T05:38:58.530Z,6.63
2019-02-21T05:39:33.829Z,6.69
2019-02-21T05:40:09.266Z,6.66
2019-02-21T05:40:44.261Z,6.62
2019-02-21T05:41:19.971Z,6.69
2019-02-21T05:41:55.530Z,6.66
2019-02-21T05:42:30.949Z,6.62
2019-02-21T05:43:06.328Z,6.61
2019-02-21T05:43:41.764Z,6.63
2019-02-21T05:44:17.150Z,6.69
2019-02-21T05:44:52.590Z,6.72
2019-02-21T05:45:27.899Z,6.63
2019-02-21T05:46:03.033Z,6.73
2019-02-21T05:46:38.367Z,6.72
2019-02-21T05:47:13.983Z,6.71
2019-02-21T05:47:49.181Z,6.79
2019-02-21T05:48:24.612Z,6.80
2019-02-21T05:48:59.741Z,6.80
2019-02-21T05:49:35.176Z,6.80
2019-02-21T05:50:10.773Z,6.77
2019-02-21T05:50:46.290Z,6.77
2019-02-21T05:51:21.489Z,6.66
2019-02-21T05:51:56.946Z,6.66
2019-02-21T05:52:32.444Z,6.63
2019-02-21T05:53:07.582Z,6.69
2019-02-21T05:53:42.969Z,6.63
2019-02-21T05:54:18.599Z,6.69
2019-02-21T05:54:53.896Z,6.76
2019-02-21T05:55:29.220Z,6.69
2019-02-21T05:56:04.814Z,6.72
2019-02-21T05:56:40.153Z,6.71
2019-02-21T05:57:15.569Z,6.77
2019-02-21T05:57:50.986Z,6.61
2019-02-21T05:58:26.196Z,6.68
2019-02-21T05:59:02.064Z,6.63
2019-02-21T05:59:37.465Z,6.68
2019-02-21T06:00:12.959Z,6.54
2019-02-21T06:00:48.183Z,6.61
2019-02-21T06:01:24.024Z,6.59
2019-02-21T06:01:59.344Z,6.56
2019-02-21T06:02:34.804Z,6.56
2019-02-21T06:03:10.117Z,6.51
2019-02-21T06:03:45.538Z,6.58
2019-02-21T06:04:20.689Z,6.51
2019-02-21T06:04:56.227Z,6.58
2019-02-21T06:05:31.412Z,6.54
2019-02-21T06:06:06.752Z,6.48
2019-02-21T06:06:42.147Z,6.51
2019-02-21T06:07:17.171Z,6.56
2019-02-21T06:07:52.497Z,6.56
2019-02-21T06:08:28.129Z,6.44
2019-02-21T06:09:03.641Z,6.51
2019-02-21T06:09:38.968Z,6.54
2019-02-21T06:10:14.479Z,6.51
2019-02-21T06:10:49.693Z,6.53
2019-02-21T06:11:24.901Z,6.63
2019-02-21T06:12:00.218Z,6.59
2019-02-21T06:12:35.723Z,6.54
2019-02-21T06:13:11.082Z,6.66
2019-02-21T06:13:46.396Z,6.62
2019-02-21T06:14:21.440Z,6.62
2019-02-21T06:14:57.233Z,6.58
2019-02-21T06:15:32.552Z,6.54
2019-02-21T06:16:07.849Z,6.56
2019-02-21T06:16:43.092Z,6.47
2019-02-21T06:17:18.480Z,6.56
2019-02-21T06:17:53.932Z,6.63
2019-02-21T06:18:29.469Z,6.58
2019-02-21T06:19:04.687Z,6.48
2019-02-21T06:19:40.194Z,6.54
2019-02-21T06:20:17.715Z,6.50
2019-02-21T06:20:51.027Z,6.50
2019-02-21T06:21:26.195Z,6.58
2019-02-21T06:22:10.169Z,6.51
2019-02-21T06:22:36.795Z,6.56
2019-02-21T06:23:11.997Z,6.61
2019-02-21T06:23:49.248Z,6.58
2019-02-21T06:24:22.764Z,6.63
2019-02-21T06:24:58.131Z,6.59
2019-02-21T06:25:33.529Z,6.58
2019-02-21T06:26:09.174Z,6.54
2019-02-21T06:26:44.769Z,6.46
2019-02-21T06:27:20.208Z,6.43
2019-02-21T06:27:58.265Z,6.46
2019-02-21T06:28:32.090Z,6.53
2019-02-21T06:29:09.695Z,6.53
2019-02-21T06:29:42.661Z,6.58
2019-02-21T06:30:18.048Z,6.51
2019-02-21T06:30:53.488Z,6.54
2019-02-21T06:31:28.774Z,6.44
2019-02-21T06:32:13.531Z,6.50
2019-02-21T06:32:40.632Z,6.44
2019-02-21T06:33:14.285Z,6.51
2019-02-21T06:33:49.679Z,6.50
2019-02-21T06:34:24.951Z,6.43
2019-02-21T06:35:02.677Z,6.36
2019-02-21T06:35:36.859Z,6.33
2019-02-21T06:36:12.933Z,6.38
2019-02-21T06:36:48.263Z,6.43
2019-02-21T06:37:23.686Z,6.33
2019-02-21T06:37:58.825Z,6.35
2019-02-21T06:38:34.128Z,6.38
2019-02-21T06:39:09.443Z,6.35
2019-02-21T06:39:44.763Z,6.32
2019-02-21T06:40:20.297Z,6.43
2019-02-21T06:40:55.585Z,6.40
2019-02-21T06:41:31.016Z,6.35
2019-02-21T06:42:07.144Z,6.40
2019-02-21T06:42:42.675Z,6.38
2019-02-21T06:43:17.971Z,6.36
2019-02-21T06:43:53.412Z,6.33
2019-02-21T06:44:28.512Z,6.26
2019-02-21T06:45:03.827Z,6.26
2019-02-21T06:45:39.222Z,6.22
2019-02-21T06:46:14.478Z,6.35
2019-02-21T06:46:49.770Z,6.36
2019-02-21T06:47:25.233Z,6.32
2019-02-21T06:48:00.716Z,6.33
2019-02-21T06:48:35.939Z,6.36
2019-02-21T06:49:11.137Z,6.40
2019-02-21T06:49:46.691Z,6.38
2019-02-21T06:50:27.245Z,6.38
2019-02-21T06:51:02.134Z,6.38
2019-02-21T06:51:37.427Z,6.40
2019-02-21T06:52:15.325Z,6.38
2019-02-21T06:52:48.361Z,6.41
2019-02-21T06:53:23.880Z,6.38
2019-02-21T06:54:00.338Z,6.43
2019-02-21T06:54:35.729Z,6.38
2019-02-21T06:55:11.572Z,6.36
2019-02-21T06:55:47.392Z,6.44
2019-02-21T06:56:23.640Z,6.41
2019-02-21T06:57:02.918Z,6.48
2019-02-21T06:57:38.628Z,6.47
2019-02-21T06:58:14.119Z,6.43
2019-02-21T06:58:49.439Z,6.41
2019-02-21T06:59:24.684Z,6.47
2019-02-21T07:00:00.347Z,6.50
2019-02-21T07:00:37.069Z,6.48
2019-02-21T07:01:13.058Z,6.61
2019-02-21T07:01:48.745Z,6.51
2019-02-21T07:02:24.771Z,6.61
2019-02-21T07:03:01.066Z,6.56
2019-02-21T07:03:36.880Z,6.63
2019-02-21T07:04:12.086Z,6.50
2019-02-21T07:04:48.175Z,6.58
2019-02-21T07:05:23.672Z,6.58
2019-02-21T07:05:59.143Z,6.56
2019-02-21T07:06:34.982Z,6.51
2019-02-21T07:07:10.990Z,6.59
2019-02-21T07:07:46.613Z,6.56
2019-02-21T07:08:25.026Z,6.56
2019-02-21T07:08:59.731Z,6.59
2019-02-21T07:09:33.400Z,6.61
2019-02-21T07:10:09.199Z,6.53
2019-02-21T07:10:44.535Z,6.63
2019-02-21T07:11:20.331Z,6.58
2019-02-21T07:11:56.039Z,6.66
2019-02-21T07:12:32.858Z,6.50
2019-02-21T07:13:08.671Z,6.56
2019-02-21T07:13:44.847Z,6.61
2019-02-21T07:14:20.159Z,6.63
2019-02-21T07:14:55.761Z,6.72
2019-02-21T07:15:31.567Z,6.68
2019-02-21T07:16:06.974Z,6.66
2019-02-21T07:16:42.602Z,6.66
2019-02-21T07:17:18.278Z,6.69
2019-02-21T07:17:53.539Z,6.65
2019-02-21T07:18:29.203Z,6.71
2019-02-21T07:19:04.798Z,6.72
2019-02-21T07:19:40.564Z,6.69
2019-02-21T07:20:16.223Z,6.73
2019-02-21T07:20:51.676Z,6.71
2019-02-21T07:21:27.296Z,6.69
2019-02-21T07:22:03.198Z,6.66
2019-02-21T07:22:38.629Z,6.83
2019-02-21T07:23:14.065Z,6.84
2019-02-21T07:23:49.388Z,6.81
2019-02-21T07:24:24.522Z,6.84
2019-02-21T07:24:59.926Z,6.81
2019-02-21T07:25:35.467Z,6.91
2019-02-21T07:26:10.749Z,6.89
2019-02-21T07:26:46.203Z,7.05
2019-02-21T07:27:21.620Z,6.91
2019-02-21T07:27:58.426Z,6.91
2019-02-21T07:28:32.211Z,6.99
2019-02-21T07:29:07.750Z,7.04
2019-02-21T07:29:42.862Z,7.12
2019-02-21T07:30:20.320Z,7.15
2019-02-21T07:30:53.838Z,7.12
2019-02-21T07:31:30.434Z,7.15
2019-02-21T07:32:04.584Z,7.17
2019-02-21T07:32:40.006Z,7.19
2019-02-21T07:33:27.013Z,7.19
2019-02-21T07:33:50.603Z,7.26
2019-02-21T07:34:26.285Z,7.27
2019-02-21T07:35:01.703Z,7.27
2019-02-21T07:35:37.001Z,7.29
2019-02-21T07:36:12.540Z,7.34
2019-02-21T07:36:49.990Z,7.27
2019-02-21T07:37:23.318Z,7.29
2019-02-21T07:37:58.826Z,7.35
2019-02-21T07:38:33.888Z,7.41
2019-02-21T07:39:17.447Z,7.34
2019-02-21T07:39:44.627Z,7.35
2019-02-21T07:40:20.442Z,7.44
2019-02-21T07:40:55.497Z,7.45
2019-02-21T07:41:31.171Z,7.45
2019-02-21T07:42:06.395Z,7.55
2019-02-21T07:42:42.007Z,7.53
2019-02-21T07:43:17.427Z,7.52
2019-02-21T07:43:53.069Z,7.62
2019-02-21T07:44:28.507Z,7.59
2019-02-21T07:45:03.923Z,7.75
2019-02-21T07:45:39.325Z,7.74
2019-02-21T07:46:14.432Z,7.72
2019-02-21T07:46:49.768Z,7.81
2019-02-21T07:47:25.255Z,7.78
2019-02-21T07:48:00.784Z,7.84
2019-02-21T07:48:36.512Z,7.87
2019-02-21T07:49:11.650Z,7.82
2019-02-21T07:49:46.954Z,7.96
2019-02-21T07:50:23.184Z,8.02
2019-02-21T07:50:57.483Z,8.07
2019-02-21T07:51:33.002Z,7.97
2019-02-21T07:52:08.797Z,8.02